Mise à jour: Mardi, 31 août 2010, 04h30 (UTC+4)
Trajectoire complète du système 08 08 CYCLONE tropical très intense EDZANI
Date et Heure
en UTC
(soit H+4
à La Réunion)
Longit.


(°Est)
Latitude


(°Sud)
Intensité
Dvorak
analysée
(1.0/8.0)

Type de système
analysé

Pression
minimale
estimée
(hPa)
Vent moyen
sur 10'
maxi estimé
(noeud,km/h)
Rafales
maximales
associées
(noeud,km/h)
03/01/2010 06:00 92.75 10.30 2.0 Perturbation tropicale 1000 25 kt, 46 km/h 35 kt, 65 km/h
03/01/2010 12:00 92.28 10.44 2.0 Perturbation tropicale 1000 25 kt, 46 km/h 35 kt, 65 km/h
03/01/2010 18:00 91.48 10.62 2.0 Perturbation tropicale 1001 25 kt, 46 km/h 35 kt, 65 km/h
04/01/2010 00:00 90.61 10.66 1.5 Perturbation tropicale 1002 23 kt, 42 km/h 32 kt, 60 km/h
04/01/2010 06:00 89.51 10.42 2.0 Perturbation tropicale 1001 25 kt, 46 km/h 35 kt, 65 km/h
04/01/2010 12:00 88.37 10.30 2.0 Perturbation tropicale 1000 25 kt, 46 km/h 35 kt, 65 km/h
04/01/2010 18:00 87.76 10.71 2.0 Perturbation tropicale 999 25 kt, 46 km/h 35 kt, 65 km/h
05/01/2010 00:00 87.28 11.22 2.0 Perturbation tropicale 999 25 kt, 46 km/h 35 kt, 65 km/h
05/01/2010 06:00 86.76 11.67 2.0 Perturbation tropicale 999 25 kt, 46 km/h 35 kt, 65 km/h
05/01/2010 12:00 85.92 12.09 2.0 Perturbation tropicale 997 27 kt, 50 km/h 38 kt, 70 km/h
05/01/2010 18:00 84.86 12.38 2.5 DEPRESSION tropicale 996 30 kt, 55 km/h 42 kt, 78 km/h
06/01/2010 00:00 83.59 12.68 2.5 DEPRESSION tropicale 995 33 kt, 61 km/h 46 kt, 86 km/h
06/01/2010 06:00 82.75 12.80 3.0 TEMPETE tropicale moderée 992 40 kt, 74 km/h 56 kt, 104 km/h
06/01/2010 12:00 81.98 13.42 3.0 TEMPETE tropicale moderée 991 40 kt, 74 km/h 56 kt, 104 km/h
06/01/2010 18:00 80.93 13.68 3.5 TEMPETE tropicale moderée 987 45 kt, 83 km/h 63 kt, 117 km/h
07/01/2010 00:00 80.48 13.82 4.0 Forte TEMPETE tropicale 976 57 kt, 105 km/h 80 kt, 148 km/h
07/01/2010 06:00 80.00 14.05 4.5 CYCLONE tropical 965 70 kt, 129 km/h 98 kt, 182 km/h
07/01/2010 12:00 79.60 14.50 5.5 CYCLONE tropical intense 945 90 kt, 166 km/h 126 kt, 235 km/h
07/01/2010 18:00 78.85 14.94 6.0 CYCLONE tropical intense 935 100 kt, 185 km/h 141 kt, 261 km/h
08/01/2010 00:00 78.25 15.25 6.5 CYCLONE tropical intense 920 110 kt, 203 km/h 155 kt, 287 km/h
08/01/2010 06:00 77.78 15.57 6.5 CYCLONE tropical intense 915 115 kt, 212 km/h 162 kt, 300 km/h
08/01/2010 12:00 77.01 16.05 7.0 CYCLONE tropical très intense 910 120 kt, 222 km/h 169 kt, 313 km/h
08/01/2010 18:00 76.20 16.41 7.0 CYCLONE tropical très intense 910 120 kt, 222 km/h 169 kt, 313 km/h
09/01/2010 00:00 75.45 16.90 6.0 CYCLONE tropical intense 925 105 kt, 194 km/h 148 kt, 274 km/h
09/01/2010 06:00 74.62 17.51 5.5 CYCLONE tropical intense 935 95 kt, 175 km/h 133 kt, 248 km/h
09/01/2010 12:00 73.64 18.28 5.5 CYCLONE tropical intense 935 95 kt, 175 km/h 133 kt, 248 km/h
09/01/2010 18:00 72.88 18.91 5.5 CYCLONE tropical intense 945 90 kt, 166 km/h 126 kt, 235 km/h
10/01/2010 00:00 72.07 20.05 5.5 CYCLONE tropical 950 85 kt, 157 km/h 119 kt, 221 km/h
10/01/2010 06:00 71.51 21.11 5.0 CYCLONE tropical 955 80 kt, 148 km/h 112 kt, 208 km/h
10/01/2010 12:00 71.02 22.34 4.5 CYCLONE tropical 965 70 kt, 129 km/h 98 kt, 182 km/h
10/01/2010 18:00 70.85 23.30 4.5 CYCLONE tropical 970 65 kt, 120 km/h 91 kt, 169 km/h
11/01/2010 00:00 71.12 24.28 4.0 Forte TEMPETE tropicale 975 57 kt, 105 km/h 80 kt, 148 km/h
11/01/2010 06:00 71.75 24.95 3.5 Forte TEMPETE tropicale 985 50 kt, 92 km/h 70 kt, 130 km/h
11/01/2010 12:00 72.39 25.54 3.5 TEMPETE tropicale moderée 987 45 kt, 83 km/h 63 kt, 117 km/h
11/01/2010 18:00 72.96 25.87   DEPRESSION sub-tropicale 987 45 kt, 83 km/h 63 kt, 117 km/h
12/01/2010 00:00 72.34 25.99   DEPRESSION sub-tropicale 987 45 kt, 83 km/h 63 kt, 117 km/h
12/01/2010 06:00 71.50 26.03   DEPRESSION sub-tropicale 987 45 kt, 83 km/h 63 kt, 117 km/h
12/01/2010 12:00 70.80 26.28   DEPRESSION sub-tropicale 987 45 kt, 83 km/h 63 kt, 117 km/h
12/01/2010 18:00 69.69 26.62   DEPRESSION sub-tropicale 987 45 kt, 83 km/h 63 kt, 117 km/h
13/01/2010 00:00 68.63 27.46   DEPRESSION sub-tropicale 986 45 kt, 83 km/h 63 kt, 117 km/h
13/01/2010 06:00 67.77 28.37   DEPRESSION sub-tropicale 986 45 kt, 83 km/h 63 kt, 117 km/h
13/01/2010 12:00 67.33 29.43   DEPRESSION sub-tropicale 985 45 kt, 83 km/h 63 kt, 117 km/h
13/01/2010 18:00 67.29 30.65   DEPRESSION sub-tropicale 985 45 kt, 83 km/h 63 kt, 117 km/h
14/01/2010 00:00 67.70 31.99   DEPRESSION sub-tropicale 984 45 kt, 83 km/h 63 kt, 117 km/h
14/01/2010 06:00 68.02 33.43   DEPRESSION sub-tropicale 984 45 kt, 83 km/h 63 kt, 117 km/h
14/01/2010 12:00 69.60 34.62   DEPRESSION sub-tropicale 984 45 kt, 83 km/h 63 kt, 117 km/h
14/01/2010 18:00 72.27 36.18   DEPRESSION extra-tropicale 985 45 kt, 83 km/h 63 kt, 117 km/h
15/01/2010 00:00 75.77 37.78   DEPRESSION extra-tropicale 986 45 kt, 83 km/h 63 kt, 117 km/h